Time;durP1;ratioP1;P1;durP2;ratioP2;P2;SDS_P1;SDS_P2;PMS_P1;PMS_P2;Temp;Humidity;BMP_temperature;BMP_pressure;BME280_temperature;BME280_humidity;BME280_pressure;Samples;Min_cycle;Max_cycle;Signal;HPM_P1;HPM_P2
2022/03/01 00:00:02;;;;;;;14.15;8.95;;;;;;;;;;4963482;28;20448;-80
2022/03/01 00:02:29;;;;;;;16.15;9.68;;;;;;;;;;4972150;28;20038;-80
2022/03/01 00:04:54;;;;;;;15.38;8.68;;;;;;;;;;4979620;28;20065;-80
2022/03/01 00:07:21;;;;;;;14.50;8.85;;;;;;;;;;4948587;28;20038;-79
2022/03/01 00:09:48;;;;;;;17.38;9.68;;;;;;;;;;4959359;28;20035;-80
2022/03/01 00:12:13;;;;;;;15.48;8.95;;;;;;;;;;4970144;28;20066;-80
2022/03/01 00:14:39;;;;;;;15.98;10.05;;;;;;;;;;4963919;28;20675;-80
2022/03/01 00:17:07;;;;;;;15.18;9.38;;;;;;;;;;4972177;28;20078;-81
2022/03/01 00:19:32;;;;;;;12.65;8.70;;;;;;;;;;4976484;28;20081;-80
2022/03/01 00:21:58;;;;;;;16.83;8.82;;;;;;;;;;4971749;28;20042;-80
2022/03/01 00:24:26;;;;;;;13.82;8.73;;;;;;;;;;4967400;28;20125;-81
2022/03/01 00:26:51;;;;;;;17.95;9.65;;;;;;;;;;4946987;28;20034;-80
2022/03/01 00:29:19;;;;;;;14.35;8.82;;;;;;;;;;4948910;28;20508;-80
2022/03/01 00:31:46;;;;;;;12.48;8.07;;;;;;;;;;4964965;28;20035;-80
2022/03/01 00:34:11;;;;;;;14.20;9.13;;;;;;;;;;4948619;28;20035;-80
2022/03/01 00:36:38;;;;;;;25.63;9.68;;;;;;;;;;4967880;28;20097;-81
2022/03/01 00:39:05;;;;;;;14.18;8.98;;;;;;;;;;4943902;28;20046;-80
2022/03/01 00:41:31;;;;;;;14.82;9.45;;;;;;;;;;4948148;28;20270;-80
2022/03/01 00:43:56;;;;;;;16.50;8.90;;;;;;;;;;4945764;28;20073;-79
2022/03/01 00:46:26;;;;;;;12.43;8.30;;;;;;;;;;4967837;28;20050;-80
2022/03/01 00:48:52;;;;;;;14.75;9.82;;;;;;;;;;4981970;28;20038;-80
2022/03/01 00:51:18;;;;;;;15.70;9.35;;;;;;;;;;4968794;28;20404;-79
2022/03/01 00:53:44;;;;;;;18.20;10.15;;;;;;;;;;4975383;28;20054;-80
2022/03/01 00:56:10;;;;;;;16.48;9.43;;;;;;;;;;4969063;28;20046;-79
2022/03/01 00:58:35;;;;;;;13.73;9.25;;;;;;;;;;4951148;28;20065;-79
2022/03/01 01:01:01;;;;;;;13.73;8.68;;;;;;;;;;4966710;28;20117;-79
2022/03/01 01:03:29;;;;;;;16.70;10.25;;;;;;;;;;4971365;28;20582;-80
2022/03/01 01:05:54;;;;;;;16.60;9.60;;;;;;;;;;4979210;28;20061;-80
2022/03/01 01:08:21;;;;;;;17.90;9.38;;;;;;;;;;4979747;28;20043;-80
2022/03/01 01:10:48;;;;;;;15.40;8.65;;;;;;;;;;4980201;28;20038;-79
2022/03/01 01:13:15;;;;;;;14.38;9.52;;;;;;;;;;4974885;28;20491;-79
2022/03/01 01:15:42;;;;;;;16.15;9.40;;;;;;;;;;5001844;28;20041;-80
2022/03/01 01:18:09;;;;;;;16.95;9.60;;;;;;;;;;4986764;28;20506;-79
2022/03/01 01:20:34;;;;;;;16.35;9.50;;;;;;;;;;4987315;28;20138;-79
2022/03/01 01:23:00;;;;;;;16.45;9.77;;;;;;;;;;4988686;28;20042;-79
2022/03/01 01:25:26;;;;;;;18.55;9.60;;;;;;;;;;4987245;28;20038;-80
2022/03/01 01:27:54;;;;;;;15.93;9.35;;;;;;;;;;4957687;28;20520;-80
2022/03/01 01:30:23;;;;;;;13.68;8.27;;;;;;;;;;4975692;28;20121;-79
2022/03/01 01:32:50;;;;;;;15.93;9.77;;;;;;;;;;4970057;28;20046;-79
2022/03/01 01:35:22;;;;;;;15.68;9.52;;;;;;;;;;4975075;28;20590;-79
2022/03/01 01:37:48;;;;;;;17.42;9.80;;;;;;;;;;4969363;28;20033;-79
2022/03/01 01:40:16;;;;;;;14.15;9.40;;;;;;;;;;4962536;28;20058;-79
2022/03/01 01:42:42;;;;;;;16.17;9.82;;;;;;;;;;4958173;28;20506;-80
2022/03/01 01:45:08;;;;;;;14.32;9.93;;;;;;;;;;4980550;28;20398;-80
2022/03/01 01:47:34;;;;;;;16.58;8.25;;;;;;;;;;4965952;28;20061;-80
2022/03/01 01:50:00;;;;;;;16.05;9.52;;;;;;;;;;4971625;28;20441;-80
2022/03/01 01:52:26;;;;;;;12.45;8.52;;;;;;;;;;4969586;28;20053;-80
2022/03/01 01:54:53;;;;;;;16.13;9.65;;;;;;;;;;4961737;28;20134;-80
2022/03/01 01:57:21;;;;;;;16.55;9.13;;;;;;;;;;4977405;28;20507;-80
2022/03/01 01:59:48;;;;;;;14.95;9.35;;;;;;;;;;4972131;28;20150;-79
2022/03/01 02:02:15;;;;;;;16.33;9.35;;;;;;;;;;4976504;28;20130;-80
2022/03/01 02:04:42;;;;;;;17.35;10.27;;;;;;;;;;4953923;28;20209;-79
2022/03/01 02:07:10;;;;;;;16.13;9.50;;;;;;;;;;4974618;28;20058;-80
2022/03/01 02:09:38;;;;;;;15.90;8.75;;;;;;;;;;4983482;28;20407;-79
2022/03/01 02:12:05;;;;;;;17.98;9.07;;;;;;;;;;4973273;28;20208;-80
2022/03/01 02:14:32;;;;;;;16.48;9.75;;;;;;;;;;4977778;28;20026;-80
2022/03/01 02:16:59;;;;;;;16.00;8.93;;;;;;;;;;4970121;28;20042;-80
2022/03/01 02:19:25;;;;;;;17.67;8.98;;;;;;;;;;4972073;28;20044;-80
2022/03/01 02:21:55;;;;;;;14.63;9.18;;;;;;;;;;4976640;28;20530;-79
2022/03/01 02:24:25;;;;;;;18.27;9.52;;;;;;;;;;4952297;28;20046;-80
2022/03/01 02:27:03;;;;;;;20.70;9.30;;;;;;;;;;4977550;28;20094;-79
2022/03/01 02:29:29;;;;;;;15.45;9.35;;;;;;;;;;4975736;28;20053;-79
2022/03/01 02:31:58;;;;;;;16.90;9.95;;;;;;;;;;4981023;28;20034;-79
2022/03/01 02:34:23;;;;;;;16.38;8.95;;;;;;;;;;4979412;28;20125;-80
2022/03/01 02:36:49;;;;;;;15.00;9.50;;;;;;;;;;4973311;28;20298;-81
2022/03/01 02:39:17;;;;;;;13.07;8.95;;;;;;;;;;4985092;28;20049;-79
2022/03/01 02:41:45;;;;;;;17.15;9.93;;;;;;;;;;4962766;28;20034;-79
2022/03/01 02:44:13;;;;;;;16.75;8.90;;;;;;;;;;4959094;28;20050;-79
2022/03/01 02:46:39;;;;;;;16.75;8.55;;;;;;;;;;4975925;28;20034;-79
2022/03/01 02:49:06;;;;;;;15.93;9.52;;;;;;;;;;4963237;28;20046;-82
2022/03/01 02:51:33;;;;;;;18.52;9.77;;;;;;;;;;4972683;28;20246;-79
2022/03/01 02:53:59;;;;;;;16.88;10.98;;;;;;;;;;4990718;28;20046;-79
2022/03/01 02:56:24;;;;;;;13.75;8.77;;;;;;;;;;4981147;28;20050;-79
2022/03/01 02:58:50;;;;;;;18.95;9.35;;;;;;;;;;4976136;28;22107;-79
2022/03/01 03:01:20;;;;;;;16.73;9.25;;;;;;;;;;4955942;28;20046;-79
2022/03/01 03:03:45;;;;;;;15.95;10.05;;;;;;;;;;4996108;28;20042;-77
2022/03/01 03:06:11;;;;;;;17.02;9.40;;;;;;;;;;4980315;28;20097;-77
2022/03/01 03:08:37;;;;;;;15.88;8.43;;;;;;;;;;4977107;28;20066;-77
2022/03/01 03:11:03;;;;;;;17.33;9.20;;;;;;;;;;4982143;28;20093;-77
2022/03/01 03:13:29;;;;;;;17.33;9.15;;;;;;;;;;4971727;28;20294;-77
2022/03/01 03:15:54;;;;;;;17.80;9.60;;;;;;;;;;4975550;28;20042;-77
2022/03/01 03:18:20;;;;;;;15.60;9.63;;;;;;;;;;4980227;28;20569;-77
2022/03/01 03:20:46;;;;;;;16.27;9.60;;;;;;;;;;4982588;28;20078;-77
2022/03/01 03:23:11;;;;;;;16.55;9.35;;;;;;;;;;4972618;28;20038;-77
2022/03/01 03:25:38;;;;;;;15.77;10.65;;;;;;;;;;4978144;28;20047;-77
2022/03/01 03:28:06;;;;;;;17.08;9.52;;;;;;;;;;4986395;28;20451;-77
2022/03/01 03:30:31;;;;;;;16.60;9.50;;;;;;;;;;4985480;28;20076;-78
2022/03/01 03:32:57;;;;;;;17.73;10.43;;;;;;;;;;4988068;28;20038;-78
2022/03/01 03:35:25;;;;;;;13.43;9.25;;;;;;;;;;4989097;28;20042;-78
2022/03/01 03:37:50;;;;;;;19.67;8.40;;;;;;;;;;4974968;28;20415;-79
2022/03/01 03:40:16;;;;;;;14.50;8.45;;;;;;;;;;4969125;28;20056;-80
2022/03/01 03:42:44;;;;;;;21.17;10.18;;;;;;;;;;4969442;28;20050;-79
2022/03/01 03:45:11;;;;;;;17.05;9.88;;;;;;;;;;4972558;28;20038;-79
2022/03/01 03:47:36;;;;;;;17.95;10.35;;;;;;;;;;4974464;28;20039;-79
2022/03/01 03:50:06;;;;;;;15.40;8.70;;;;;;;;;;4976826;28;20229;-79
2022/03/01 03:52:31;;;;;;;17.75;10.27;;;;;;;;;;4959730;28;20052;-79
2022/03/01 03:54:57;;;;;;;18.45;9.80;;;;;;;;;;4970780;28;20062;-78
2022/03/01 03:57:23;;;;;;;18.25;9.68;;;;;;;;;;4983264;28;20034;-78
2022/03/01 03:59:48;;;;;;;16.63;9.35;;;;;;;;;;4975065;28;20039;-79
2022/03/01 04:02:14;;;;;;;21.83;9.90;;;;;;;;;;4979527;28;20042;-79
2022/03/01 04:04:40;;;;;;;17.65;9.63;;;;;;;;;;4974733;28;20035;-79
2022/03/01 04:07:06;;;;;;;19.08;9.80;;;;;;;;;;4981523;28;20129;-79
2022/03/01 04:09:32;;;;;;;17.00;9.85;;;;;;;;;;4957114;28;20034;-79
2022/03/01 04:11:57;;;;;;;19.40;9.43;;;;;;;;;;4949673;28;20082;-79
2022/03/01 04:14:26;;;;;;;17.35;10.02;;;;;;;;;;4972758;28;20034;-78
2022/03/01 04:16:54;;;;;;;17.10;9.93;;;;;;;;;;4958427;28;20050;-79
2022/03/01 04:19:19;;;;;;;17.13;9.13;;;;;;;;;;4976424;28;20034;-79
2022/03/01 04:21:45;;;;;;;17.50;9.23;;;;;;;;;;4968051;28;20069;-78
2022/03/01 04:24:11;;;;;;;17.80;10.15;;;;;;;;;;4960808;28;20042;-79
2022/03/01 04:26:36;;;;;;;20.15;10.88;;;;;;;;;;4961108;28;20438;-79
2022/03/01 04:29:03;;;;;;;18.92;9.20;;;;;;;;;;4966257;28;20047;-79
2022/03/01 04:31:29;;;;;;;16.25;9.50;;;;;;;;;;4985393;28;20121;-80
2022/03/01 04:33:55;;;;;;;18.75;10.13;;;;;;;;;;4970809;28;20062;-78
2022/03/01 04:36:21;;;;;;;18.55;10.82;;;;;;;;;;4968995;28;20137;-78
2022/03/01 04:38:47;;;;;;;20.55;9.88;;;;;;;;;;4960055;28;20047;-79
2022/03/01 04:41:13;;;;;;;20.23;10.73;;;;;;;;;;4962184;28;20043;-79
2022/03/01 04:43:39;;;;;;;19.10;10.25;;;;;;;;;;4962554;28;20113;-79
2022/03/01 04:46:04;;;;;;;19.23;9.95;;;;;;;;;;4973685;28;20042;-79
2022/03/01 04:48:30;;;;;;;15.07;9.60;;;;;;;;;;4985668;28;20096;-79
2022/03/01 04:50:57;;;;;;;20.02;11.07;;;;;;;;;;4971937;28;20038;-78
2022/03/01 04:53:23;;;;;;;20.23;11.38;;;;;;;;;;4972374;28;20039;-78
2022/03/01 04:55:48;;;;;;;17.42;10.20;;;;;;;;;;4960406;28;20416;-78
2022/03/01 04:58:14;;;;;;;19.70;10.48;;;;;;;;;;4976689;28;20097;-78
2022/03/01 05:00:40;;;;;;;15.63;9.77;;;;;;;;;;4969104;28;20058;-78
2022/03/01 05:03:06;;;;;;;18.70;10.02;;;;;;;;;;4963645;28;20504;-78
2022/03/01 05:05:32;;;;;;;14.93;9.20;;;;;;;;;;4962534;28;20122;-78
2022/03/01 05:07:58;;;;;;;19.30;10.68;;;;;;;;;;4966572;28;20053;-78
2022/03/01 05:10:24;;;;;;;16.45;9.18;;;;;;;;;;4984834;28;20126;-78
2022/03/01 05:12:52;;;;;;;18.33;10.05;;;;;;;;;;4959582;28;20104;-78
2022/03/01 05:15:18;;;;;;;16.67;9.60;;;;;;;;;;4963506;28;20173;-79
2022/03/01 05:17:44;;;;;;;17.42;9.40;;;;;;;;;;4971790;28;20034;-79
2022/03/01 05:20:11;;;;;;;21.90;9.90;;;;;;;;;;4979506;28;20070;-78
2022/03/01 05:22:37;;;;;;;16.00;9.82;;;;;;;;;;4970238;28;20039;-78
2022/03/01 05:25:09;;;;;;;17.95;9.32;;;;;;;;;;4973105;28;20463;-78
2022/03/01 05:27:35;;;;;;;17.77;9.20;;;;;;;;;;4986715;28;20470;-78
2022/03/01 05:30:01;;;;;;;16.50;9.50;;;;;;;;;;4996838;28;20041;-79
2022/03/01 05:32:27;;;;;;;16.83;9.50;;;;;;;;;;4973438;28;20484;-78
2022/03/01 05:34:52;;;;;;;17.10;8.65;;;;;;;;;;4958809;28;20130;-79
2022/03/01 05:37:18;;;;;;;14.65;8.50;;;;;;;;;;4980887;28;20042;-78
2022/03/01 05:39:44;;;;;;;18.10;9.20;;;;;;;;;;4992322;28;20073;-78
2022/03/01 05:42:10;;;;;;;17.75;8.95;;;;;;;;;;4966007;28;20038;-79
2022/03/01 05:44:36;;;;;;;15.20;9.43;;;;;;;;;;4989389;28;20112;-79
2022/03/01 05:47:02;;;;;;;18.25;9.00;;;;;;;;;;4986916;28;20435;-79
2022/03/01 05:49:28;;;;;;;17.45;9.20;;;;;;;;;;4968281;28;20045;-78
2022/03/01 05:51:53;;;;;;;17.77;9.30;;;;;;;;;;4986765;28;20046;-78
2022/03/01 05:54:19;;;;;;;15.23;8.57;;;;;;;;;;4967914;28;20038;-79
2022/03/01 05:56:45;;;;;;;15.32;8.93;;;;;;;;;;4958461;28;20038;-79
2022/03/01 05:59:12;;;;;;;14.68;8.15;;;;;;;;;;4978006;28;20081;-79
2022/03/01 06:01:38;;;;;;;15.68;9.10;;;;;;;;;;4976134;28;20038;-80
2022/03/01 06:04:03;;;;;;;19.08;9.82;;;;;;;;;;4976454;28;20492;-78
2022/03/01 06:06:30;;;;;;;15.35;9.57;;;;;;;;;;4981024;28;20038;-79
2022/03/01 06:08:55;;;;;;;19.58;9.45;;;;;;;;;;4988863;28;20113;-79
2022/03/01 06:11:21;;;;;;;20.33;10.02;;;;;;;;;;4979131;28;20051;-76
2022/03/01 06:13:47;;;;;;;16.60;9.50;;;;;;;;;;4961099;28;20074;-77
2022/03/01 06:16:12;;;;;;;19.27;11.25;;;;;;;;;;4968082;28;20423;-77
2022/03/01 06:18:38;;;;;;;21.17;9.60;;;;;;;;;;4972503;28;20050;-76
2022/03/01 06:21:05;;;;;;;21.88;9.85;;;;;;;;;;4968600;28;20042;-77
2022/03/01 06:23:32;;;;;;;19.00;9.23;;;;;;;;;;4969906;28;20048;-76
2022/03/01 06:26:00;;;;;;;24.52;9.73;;;;;;;;;;4969650;28;20051;-76
2022/03/01 06:28:26;;;;;;;16.75;9.60;;;;;;;;;;4974043;28;20051;-77
2022/03/01 06:30:52;;;;;;;19.67;9.10;;;;;;;;;;4975322;28;20043;-77
2022/03/01 06:33:21;;;;;;;17.20;9.48;;;;;;;;;;4975927;28;20058;-76
2022/03/01 06:35:50;;;;;;;17.83;9.40;;;;;;;;;;4966313;28;20047;-77
2022/03/01 06:38:15;;;;;;;18.13;9.48;;;;;;;;;;4984416;28;20549;-77
2022/03/01 06:40:41;;;;;;;15.40;9.57;;;;;;;;;;4964949;28;20129;-76
2022/03/01 06:43:09;;;;;;;19.02;9.82;;;;;;;;;;4959430;28;20074;-77
2022/03/01 06:45:37;;;;;;;18.90;9.48;;;;;;;;;;4966148;28;20038;-76
2022/03/01 06:48:02;;;;;;;16.70;9.10;;;;;;;;;;4984474;28;20451;-76
2022/03/01 06:50:28;;;;;;;18.05;9.20;;;;;;;;;;4973417;28;20101;-77
2022/03/01 06:52:54;;;;;;;18.33;8.60;;;;;;;;;;4982720;28;20054;-76
2022/03/01 06:55:21;;;;;;;14.73;8.82;;;;;;;;;;4973054;28;20090;-76
2022/03/01 06:57:47;;;;;;;16.60;8.77;;;;;;;;;;4971933;28;20041;-76
2022/03/01 07:00:14;;;;;;;18.38;9.40;;;;;;;;;;4971780;28;20259;-77
2022/03/01 07:02:42;;;;;;;18.25;9.07;;;;;;;;;;4966218;28;20065;-76
2022/03/01 07:05:14;;;;;;;17.00;9.05;;;;;;;;;;4983344;28;20411;-76
2022/03/01 07:07:40;;;;;;;16.83;8.60;;;;;;;;;;4959462;28;20031;-77
2022/03/01 07:10:08;;;;;;;16.10;8.48;;;;;;;;;;4970840;28;20055;-76
2022/03/01 07:12:34;;;;;;;17.90;8.48;;;;;;;;;;4971280;28;20062;-77
2022/03/01 07:15:00;;;;;;;16.40;8.77;;;;;;;;;;4957725;28;20034;-76
2022/03/01 07:17:30;;;;;;;13.98;7.88;;;;;;;;;;4970808;28;20108;-76
2022/03/01 07:19:56;;;;;;;14.38;7.88;;;;;;;;;;4974798;28;20045;-76
2022/03/01 07:22:22;;;;;;;17.35;9.50;;;;;;;;;;4977625;28;20492;-79
2022/03/01 07:24:48;;;;;;;21.75;11.60;;;;;;;;;;4969942;28;20041;-79
2022/03/01 07:27:13;;;;;;;25.23;13.48;;;;;;;;;;4971316;28;20045;-79
2022/03/01 07:29:39;;;;;;;27.45;14.18;;;;;;;;;;4988260;28;20513;-79
2022/03/01 07:32:06;;;;;;;25.70;13.77;;;;;;;;;;4966533;28;20075;-79
2022/03/01 07:34:35;;;;;;;42.85;19.45;;;;;;;;;;4959926;28;20042;-79
2022/03/01 07:37:01;;;;;;;21.58;11.95;;;;;;;;;;4985429;28;20044;-79
2022/03/01 07:39:27;;;;;;;33.50;14.25;;;;;;;;;;4983740;28;20038;-79
2022/03/01 07:41:53;;;;;;;29.92;13.48;;;;;;;;;;4981799;28;20038;-79
2022/03/01 07:44:19;;;;;;;19.98;10.23;;;;;;;;;;4983064;28;20035;-79
2022/03/01 07:46:45;;;;;;;13.18;7.15;;;;;;;;;;4978692;28;20035;-79
2022/03/01 07:49:11;;;;;;;13.25;7.78;;;;;;;;;;4966240;28;20081;-79
2022/03/01 07:51:37;;;;;;;16.30;8.10;;;;;;;;;;4991607;28;20487;-79
2022/03/01 07:54:03;;;;;;;9.13;5.68;;;;;;;;;;4955783;28;20118;-79
2022/03/01 07:56:29;;;;;;;12.55;7.80;;;;;;;;;;4982384;28;20042;-79
2022/03/01 07:58:55;;;;;;;15.73;8.70;;;;;;;;;;4982131;28;20045;-79
2022/03/01 08:01:21;;;;;;;13.15;7.35;;;;;;;;;;4968072;28;20106;-79
2022/03/01 08:03:47;;;;;;;18.17;7.32;;;;;;;;;;4953683;28;20052;-79
2022/03/01 08:06:13;;;;;;;15.40;8.27;;;;;;;;;;4952984;28;20055;-79
2022/03/01 08:08:39;;;;;;;13.77;7.20;;;;;;;;;;4977484;28;20399;-79
2022/03/01 08:11:04;;;;;;;14.60;7.38;;;;;;;;;;4981952;28;20048;-79
2022/03/01 08:13:34;;;;;;;9.65;5.07;;;;;;;;;;4992943;28;20038;-82
2022/03/01 08:16:00;;;;;;;12.95;7.88;;;;;;;;;;4991496;28;20038;-80
2022/03/01 08:18:26;;;;;;;12.15;6.35;;;;;;;;;;4967842;28;20563;-80
2022/03/01 08:20:52;;;;;;;10.90;7.30;;;;;;;;;;4954058;28;20043;-80
2022/03/01 08:23:17;;;;;;;13.63;6.97;;;;;;;;;;4964554;28;20247;-80
2022/03/01 08:25:47;;;;;;;10.45;6.05;;;;;;;;;;4977195;28;20141;-79
2022/03/01 08:28:13;;;;;;;11.50;6.32;;;;;;;;;;4975177;28;20047;-81
2022/03/01 08:30:39;;;;;;;14.95;6.65;;;;;;;;;;4982192;28;20048;-80
2022/03/01 08:33:06;;;;;;;13.32;7.38;;;;;;;;;;4963128;28;20038;-80
2022/03/01 08:35:35;;;;;;;11.15;6.72;;;;;;;;;;4965948;28;20047;-80
2022/03/01 08:38:03;;;;;;;11.23;6.93;;;;;;;;;;4970394;28;20042;-81
2022/03/01 08:40:39;;;;;;;10.55;6.65;;;;;;;;;;4961845;28;20053;-79
2022/03/01 08:43:06;;;;;;;15.43;7.45;;;;;;;;;;4944483;28;20496;-80
2022/03/01 08:45:31;;;;;;;10.30;5.72;;;;;;;;;;4958602;28;20399;-79
2022/03/01 08:47:57;;;;;;;9.20;6.18;;;;;;;;;;4983324;28;20042;-79
2022/03/01 08:50:23;;;;;;;10.68;6.95;;;;;;;;;;4981774;28;20046;-79
2022/03/01 08:52:49;;;;;;;13.18;6.57;;;;;;;;;;4967559;28;20042;-79
2022/03/01 08:55:16;;;;;;;11.15;6.68;;;;;;;;;;4972382;28;20669;-79
2022/03/01 08:57:41;;;;;;;11.57;6.20;;;;;;;;;;4964168;28;20052;-79
2022/03/01 09:00:09;;;;;;;8.73;5.97;;;;;;;;;;4972759;28;20395;-79
2022/03/01 09:02:35;;;;;;;14.13;6.47;;;;;;;;;;4939726;28;20493;-79
2022/03/01 09:05:01;;;;;;;13.70;6.38;;;;;;;;;;4964024;28;20097;-80
2022/03/01 09:07:27;;;;;;;10.63;6.22;;;;;;;;;;4961356;28;20481;-79
2022/03/01 09:09:53;;;;;;;11.65;6.38;;;;;;;;;;4980691;28;20042;-79
2022/03/01 09:12:19;;;;;;;7.38;5.13;;;;;;;;;;4962729;28;20042;-80
2022/03/01 09:14:45;;;;;;;10.65;5.90;;;;;;;;;;4960833;28;20049;-79
2022/03/01 09:17:11;;;;;;;10.10;6.75;;;;;;;;;;4962948;28;20054;-79
2022/03/01 09:19:36;;;;;;;10.38;6.07;;;;;;;;;;4984040;28;20053;-78
2022/03/01 09:22:02;;;;;;;10.70;5.55;;;;;;;;;;4974697;28;20600;-79
2022/03/01 09:24:29;;;;;;;11.38;6.18;;;;;;;;;;4981362;28;20074;-79
2022/03/01 09:27:00;;;;;;;10.05;5.50;;;;;;;;;;4966172;28;20053;-79
2022/03/01 09:29:26;;;;;;;12.07;6.00;;;;;;;;;;4970216;28;20049;-78
2022/03/01 09:31:52;;;;;;;10.95;5.88;;;;;;;;;;4980746;28;20546;-79
2022/03/01 09:34:18;;;;;;;10.30;5.95;;;;;;;;;;4962998;28;20046;-80
2022/03/01 09:36:43;;;;;;;12.75;6.65;;;;;;;;;;4967454;28;20069;-80
2022/03/01 09:39:10;;;;;;;10.35;6.43;;;;;;;;;;4974972;28;20101;-80
2022/03/01 09:41:37;;;;;;;10.10;6.15;;;;;;;;;;4979530;28;20039;-80
2022/03/01 09:44:03;;;;;;;9.85;6.93;;;;;;;;;;4981711;28;20149;-78
2022/03/01 09:46:29;;;;;;;9.25;6.28;;;;;;;;;;4988848;28;20042;-79
2022/03/01 09:48:55;;;;;;;8.55;5.10;;;;;;;;;;4961570;28;20114;-80
2022/03/01 09:51:22;;;;;;;9.63;5.90;;;;;;;;;;4980037;28;20042;-79
2022/03/01 09:53:50;;;;;;;12.68;6.20;;;;;;;;;;4969791;28;20035;-79
2022/03/01 09:56:16;;;;;;;10.38;5.72;;;;;;;;;;4957276;28;20038;-79
2022/03/01 09:58:51;;;;;;;10.63;5.70;;;;;;;;;;4949829;28;20039;-79
2022/03/01 10:01:17;;;;;;;8.20;5.18;;;;;;;;;;4956932;28;20920;-78
2022/03/01 10:03:51;;;;;;;10.05;6.38;;;;;;;;;;4969521;28;20434;-79
2022/03/01 10:06:19;;;;;;;10.50;6.32;;;;;;;;;;4981359;28;20066;-79
2022/03/01 10:08:45;;;;;;;7.95;5.47;;;;;;;;;;4972246;28;20113;-79
2022/03/01 10:11:11;;;;;;;9.35;6.03;;;;;;;;;;4966034;28;20586;-78
2022/03/01 10:13:39;;;;;;;9.43;5.65;;;;;;;;;;4968629;28;20487;-79
2022/03/01 10:16:15;;;;;;;10.80;6.22;;;;;;;;;;4987718;28;20122;-79
2022/03/01 10:18:42;;;;;;;;;;;;;;;;;;4957943;28;20043;-79
2022/03/01 10:21:12;;;;;;;9.50;6.53;;;;;;;;;;4989783;28;19922;-79
2022/03/01 10:23:41;;;;;;;8.10;5.50;;;;;;;;;;4962515;28;20042;-79
2022/03/01 10:26:23;;;;;;;8.70;6.07;;;;;;;;;;4972879;28;20394;-79
2022/03/01 10:28:50;;;;;;;14.70;8.80;;;;;;;;;;4969841;28;20113;-79
2022/03/01 10:31:24;;;;;;;10.43;5.90;;;;;;;;;;4959089;28;20048;-79
2022/03/01 10:34:04;;;;;;;8.53;6.10;;;;;;;;;;4970012;28;20400;-79
2022/03/01 10:36:33;;;;;;;7.38;5.60;;;;;;;;;;4964341;28;20050;-79
2022/03/01 10:39:02;;;;;;;8.07;6.15;;;;;;;;;;4970132;28;20504;-79
2022/03/01 10:41:30;;;;;;;8.88;6.45;;;;;;;;;;4967352;28;20042;-80
2022/03/01 10:43:59;;;;;;;8.98;6.30;;;;;;;;;;4969388;28;20558;-80
2022/03/01 10:46:26;;;;;;;9.68;6.38;;;;;;;;;;4971747;28;20046;-77
2022/03/01 10:49:00;;;;;;;8.95;6.35;;;;;;;;;;4973078;28;20037;-77
2022/03/01 10:51:26;;;;;;;7.57;6.43;;;;;;;;;;4979023;28;20414;-77
2022/03/01 10:53:52;;;;;;;7.22;5.75;;;;;;;;;;4966497;28;20046;-77
2022/03/01 10:56:18;;;;;;;10.48;6.30;;;;;;;;;;4960852;28;20492;-77
2022/03/01 10:58:44;;;;;;;8.43;6.43;;;;;;;;;;4983416;28;20069;-78
2022/03/01 11:01:11;;;;;;;7.60;6.35;;;;;;;;;;4967184;28;20467;-77
2022/03/01 11:03:37;;;;;;;7.18;5.25;;;;;;;;;;4965904;28;20046;-77
2022/03/01 11:06:04;;;;;;;6.00;5.40;;;;;;;;;;4963944;28;20070;-77
2022/03/01 11:08:39;;;;;;;7.20;5.72;;;;;;;;;;4976901;28;20117;-77
2022/03/01 11:11:07;;;;;;;6.22;5.60;;;;;;;;;;4973659;28;20047;-76
2022/03/01 11:13:35;;;;;;;8.43;5.68;;;;;;;;;;4981456;28;20050;-77
2022/03/01 11:16:19;;;;;;;8.88;6.00;;;;;;;;;;4968373;28;20057;-77
2022/03/01 11:19:06;;;;;;;6.75;5.45;;;;;;;;;;4978157;28;20038;-77
2022/03/01 11:21:33;;;;;;;7.32;5.30;;;;;;;;;;4954798;28;20043;-77
2022/03/01 11:24:00;;;;;;;8.52;5.78;;;;;;;;;;4978927;28;20101;-78
2022/03/01 11:26:36;;;;;;;5.43;4.68;;;;;;;;;;4968629;28;20450;-78
2022/03/01 11:29:02;;;;;;;6.75;4.68;;;;;;;;;;4959449;28;20554;-78
2022/03/01 11:31:31;;;;;;;6.82;5.57;;;;;;;;;;4965578;28;20078;-78
2022/03/01 11:34:02;;;;;;;6.80;4.85;;;;;;;;;;4956036;28;20054;-78
2022/03/01 11:36:30;;;;;;;5.78;4.80;;;;;;;;;;4986127;28;20102;-78
2022/03/01 11:39:07;;;;;;;9.43;5.50;;;;;;;;;;4969848;28;20078;-78
2022/03/01 11:41:47;;;;;;;7.10;6.40;;;;;;;;;;4959789;28;20400;-78
2022/03/01 11:44:19;;;;;;;5.68;4.80;;;;;;;;;;4962797;28;20047;-78
2022/03/01 11:46:45;;;;;;;5.82;4.93;;;;;;;;;;4994792;28;20034;-78
2022/03/01 11:49:12;;;;;;;7.63;4.63;;;;;;;;;;4982219;28;20045;-78
2022/03/01 11:51:40;;;;;;;6.43;4.55;;;;;;;;;;4973050;28;20034;-78
2022/03/01 11:54:13;;;;;;;7.63;5.00;;;;;;;;;;4966765;28;20078;-78
2022/03/01 11:56:41;;;;;;;5.40;4.63;;;;;;;;;;4983755;28;20042;-78
2022/03/01 11:59:09;;;;;;;6.82;4.95;;;;;;;;;;4949364;28;20069;-79
2022/03/01 12:01:35;;;;;;;5.78;4.68;;;;;;;;;;4966384;28;20361;-78
2022/03/01 12:04:06;;;;;;;5.35;4.75;;;;;;;;;;4975730;28;20570;-78
2022/03/01 12:06:34;;;;;;;7.43;5.28;;;;;;;;;;4963496;28;20050;-78
2022/03/01 12:09:04;;;;;;;6.43;4.30;;;;;;;;;;4953578;28;20043;-78
2022/03/01 12:11:38;;;;;;;7.00;5.05;;;;;;;;;;4975529;28;20038;-78
2022/03/01 12:14:10;;;;;;;5.38;4.63;;;;;;;;;;4969490;28;20549;-78
2022/03/01 12:16:36;;;;;;;7.18;4.60;;;;;;;;;;4964311;28;20108;-78
2022/03/01 12:19:12;;;;;;;6.20;4.47;;;;;;;;;;4976606;28;20443;-78
2022/03/01 12:21:39;;;;;;;7.10;4.13;;;;;;;;;;4971752;28;20194;-80
2022/03/01 12:24:05;;;;;;;4.80;3.83;;;;;;;;;;4985320;28;20048;-80
2022/03/01 12:26:31;;;;;;;6.00;4.00;;;;;;;;;;4965709;28;20049;-80
2022/03/01 12:28:59;;;;;;;4.40;3.50;;;;;;;;;;4967450;28;20069;-80
2022/03/01 12:31:30;;;;;;;5.85;3.67;;;;;;;;;;4983429;28;20038;-79
2022/03/01 12:34:09;;;;;;;5.05;3.72;;;;;;;;;;4978931;28;20046;-79
2022/03/01 12:36:40;;;;;;;5.43;4.00;;;;;;;;;;4957899;28;20368;-79
2022/03/01 12:39:12;;;;;;;8.05;4.05;;;;;;;;;;4949562;28;20377;-79
2022/03/01 12:41:39;;;;;;;5.60;4.00;;;;;;;;;;4969943;28;20035;-79
2022/03/01 12:44:08;;;;;;;7.65;4.43;;;;;;;;;;4968573;28;20431;-79
2022/03/01 12:46:34;;;;;;;5.80;4.00;;;;;;;;;;4982984;28;20042;-78
2022/03/01 12:49:03;;;;;;;6.38;4.15;;;;;;;;;;4987811;28;20054;-79
2022/03/01 12:51:30;;;;;;;5.20;4.40;;;;;;;;;;4975566;28;20113;-79
2022/03/01 12:54:05;;;;;;;6.47;4.07;;;;;;;;;;4975092;28;20590;-79
2022/03/01 12:56:34;;;;;;;6.05;4.05;;;;;;;;;;4971255;28;20043;-78
2022/03/01 12:59:05;;;;;;;6.22;3.90;;;;;;;;;;4963819;28;20107;-78
2022/03/01 13:01:31;;;;;;;5.40;3.78;;;;;;;;;;4966897;28;20038;-80
2022/03/01 13:03:57;;;;;;;6.03;4.00;;;;;;;;;;4984095;28;20526;-79
2022/03/01 13:06:23;;;;;;;5.15;4.28;;;;;;;;;;4968560;28;20042;-79
2022/03/01 13:08:52;;;;;;;7.38;4.82;;;;;;;;;;4975862;28;20472;-79
2022/03/01 13:11:18;;;;;;;8.25;5.18;;;;;;;;;;4967670;28;20610;-78
2022/03/01 13:13:49;;;;;;;6.80;4.00;;;;;;;;;;4967879;28;20053;-81
2022/03/01 13:16:25;;;;;;;7.60;3.90;;;;;;;;;;4977135;28;20050;-79
2022/03/01 13:18:53;;;;;;;5.20;3.92;;;;;;;;;;4963697;28;20447;-79
2022/03/01 13:21:24;;;;;;;6.13;3.88;;;;;;;;;;4946972;28;20045;-79
2022/03/01 13:23:51;;;;;;;4.70;3.28;;;;;;;;;;4980785;28;20038;-79
2022/03/01 13:26:17;;;;;;;5.28;3.70;;;;;;;;;;4968005;28;20109;-80
2022/03/01 13:28:43;;;;;;;8.48;4.68;;;;;;;;;;4976991;28;20042;-80
2022/03/01 13:31:20;;;;;;;9.63;4.97;;;;;;;;;;4965265;28;20042;-82
2022/03/01 13:33:45;;;;;;;9.20;5.47;;;;;;;;;;4970759;28;20052;-81
2022/03/01 13:36:16;;;;;;;7.53;5.15;;;;;;;;;;4979549;28;20042;-82
2022/03/01 13:38:42;;;;;;;7.93;4.90;;;;;;;;;;4952590;28;20055;-82
2022/03/01 13:41:08;;;;;;;6.68;4.22;;;;;;;;;;4963264;28;20042;-81
2022/03/01 13:43:37;;;;;;;6.38;4.38;;;;;;;;;;4971488;28;20130;-81
2022/03/01 13:46:04;;;;;;;7.63;4.50;;;;;;;;;;4975288;28;20045;-81
2022/03/01 13:48:31;;;;;;;6.65;4.32;;;;;;;;;;4997860;28;20314;-81
2022/03/01 13:51:07;;;;;;;7.30;5.10;;;;;;;;;;4983029;28;20452;-81
2022/03/01 13:53:33;;;;;;;11.35;7.40;;;;;;;;;;4968392;28;20045;-81
2022/03/01 13:55:59;;;;;;;9.52;4.38;;;;;;;;;;4975314;28;20030;-81
2022/03/01 13:58:27;;;;;;;8.10;4.78;;;;;;;;;;4991422;28;20053;-81
2022/03/01 14:00:55;;;;;;;8.50;4.47;;;;;;;;;;4975998;28;20030;-81
2022/03/01 14:03:32;;;;;;;6.93;4.57;;;;;;;;;;4975858;28;20519;-81
2022/03/01 14:06:09;;;;;;;8.50;5.00;;;;;;;;;;4988543;28;20065;-81
2022/03/01 14:08:42;;;;;;;7.05;4.75;;;;;;;;;;4977363;28;20510;-81
2022/03/01 14:11:18;;;;;;;9.43;5.50;;;;;;;;;;4989395;28;20443;-81
2022/03/01 14:13:46;;;;;;;4.63;4.10;;;;;;;;;;4955489;28;20523;-82
2022/03/01 14:16:19;;;;;;;6.25;4.80;;;;;;;;;;4943692;28;20307;-81
2022/03/01 14:18:49;;;;;;;7.75;4.40;;;;;;;;;;4969518;28;20508;-81
2022/03/01 14:21:17;;;;;;;6.18;4.35;;;;;;;;;;4954321;28;20045;-81
2022/03/01 14:23:45;;;;;;;7.78;4.60;;;;;;;;;;4958958;28;20150;-81
2022/03/01 14:26:13;;;;;;;6.65;4.38;;;;;;;;;;4967383;28;20042;-81
2022/03/01 14:28:39;;;;;;;5.10;4.28;;;;;;;;;;4951574;28;20516;-80
2022/03/01 14:31:07;;;;;;;6.35;4.32;;;;;;;;;;4969443;28;20039;-80
2022/03/01 14:33:33;;;;;;;5.43;4.15;;;;;;;;;;4971116;28;20496;-80